Bluefield, West Virginia
Current Conditions -  °F | °C
As of 9:12 PM on Monday 22 Dec 2014 (Local Time) from KBLF Reporting Station
Haze Haze  
Wind Chill: 33°   Ceiling: 200
Heat Index: 37°   Visibility: 6mi
Dew Point: 34°   Wind: 5mph
Humidity: 89%   Direction: NA
Pressure: 29.95"   Gusts: 25mph
Location:  37.27°N, 81.22°W
Report Text: KBLF 230212Z AUTO VRB04G22KT 6SM BR OVC002 03/01 A2995 RMK AO2 PK WND 15027/0200 T00280011
Loading
Personal Weather Stations






























Interactive Weather Map New forecast layout! Learn more

10-Day Weather Forecast

Advertisements
Track Severe Weather on mobile